Aérodrome :
LOGIN :

S'inscrire | Disclaimer

   EN    FR    IT 

 










Légende :    VFR   VFR Marginal   IFR   IFR Intensif   IFR Très Intensif
Visi : 
Plafond : 
>= 8 km
>= 3000ft
5 à 8 km
1000 à 3000 ft
1500m à 5 km
500 à 1000 ft
800 à 1500m
200 à 500 ft
< 800m
< 200 ft
Symboles :   Orages  Brouillard  Fortes neiges  Fortes précipitations  Vent > 20 kt
SIGMETs :   Divers  Orages  Givrage  Turbulence  Onde Orograph.  Cendres Volcan.







- Altitude de l'aérodrome : 177 ft
- Code IATA : BRI


LIBD - Palese Macchie Bari

DERNIER METAR :
  • 211650Z 18008KT 140V210 CAVOK 33/11 Q1010

METARs EXPIRÉS :
  • 211620Z 17009KT 140V210 CAVOK 35/11 Q1010
  • 211550Z 17007G17KT CAVOK 36/10 Q1010
  • 211520Z 11010KT 080V140 CAVOK 32/15 Q1011
  • 211450Z 11009KT 080V150 CAVOK 33/15 Q1011
  • 211420Z 11011KT CAVOK 32/14 Q1011

TAF TAF LIBD
Valide du 21 à 12h jusqu'au 22 à 12h UTC


211100Z 2112/2212 09010KT CAVOK
BECMG 2117/2119 17010KT
Pas de NOTAMs connus pour ce terrain.



MET'MAP, la Météo Aéronautique d'un coup d'oeil ! - Copyright ORBIFLY Décembre 2007 - Disclaimer

ORBIFLY MET'MAP TEAM :

Programmation & Développement : Alexandra Zaïnal
Conception & Développement : Baudouin d'Aumeries
Co-Programmation & Développement : Marc-Olivier Méhu
Soutien technique & logistique : Manuel Goepfert

Contact : metmap@orbifly.com




SOURCES & CREDITS :

   NOAA